• Join FlightAware (Why Join?)
  • Login
  • US Flag 
07:44PM EDT


 

Airport Tracker/Info


-or-


 

Live Flight TrackerFlight Track Log ✈ ASH3732 ✈ 10-Jul-2013 ✈ KIAD - KMCI

Flight Track Log - Related Links

Times and Time Zones

All times are in EDT time to prevent confusion due to time zone crossing. See the ASH3732 flight status page for this flight to view local times or setup timezone preferences in your user account.

Time Position Orientation Groundspeed Altitude Reporting Facility
EDT Latitude Longitude Course Direction KTS MPH feet Rate Location/Type
08:53AM 38.9167 -77.4333 218° Southwest 166 191 2,600  Level Potomac TRACON
08:54AM 38.8667 -77.4833 218° Southwest 209 241 4,400 1,560 Climbing Potomac TRACON
08:56AM 38.8506 -77.6200 261° West 258 297 7,000 900 Climbing Washington Center
08:57AM 38.8533 -77.6975 273° West 270 311 7,000 900 Level Washington Center
08:58AM 38.8533 -77.8094 270° West 270 311 8,800 1,860 Climbing Washington Center
08:59AM 38.8517 -77.8975 269° West 270 311 10,900 2,160 Climbing Washington Center
09:00AM 38.8539 -77.9933 272° West 270 311 13,200 2,160 Climbing Washington Center
09:01AM 38.8539 -78.0975 270° West 277 319 15,300 1,800 Climbing Washington Center
09:02AM 38.8542 -78.1800 270° West 282 325 16,900 1,440 Climbing Washington Center
09:03AM 38.8536 -78.3106 270° West 297 342 18,200 1,140 Climbing Washington Center
09:04AM 38.8508 -78.4253 268° West 314 361 19,200 1,020 Climbing Washington Center
09:05AM 38.8503 -78.5397 270° West 319 367 20,300 1,080 Climbing Washington Center
09:06AM 38.8494 -78.6569 270° West 329 379 21,400 660 Climbing Washington Center
09:07AM 38.8469 -78.7528 268° West 329 379 21,700 300 Climbing Washington Center
09:08AM 38.8447 -78.9075 269° West 349 402 22,000 540 Climbing Washington Center
09:09AM 38.8431 -79.0458 269° West 373 429 22,800 840 Climbing Washington Center
09:10AM 38.8411 -79.1792 269° West 378 435 23,700 900 Climbing Washington Center
09:11AM 38.8389 -79.3175 269° West 383 441 24,600 780 Climbing Washington Center
09:12AM 38.8378 -79.4214 269° West 383 441 25,400 840 Climbing Washington Center
09:13AM 38.8347 -79.5786 269° West 383 441 26,400 960 Climbing Washington Center
09:14AM 38.8322 -79.7197 269° West 383 441 27,400 900 Climbing Washington Center
09:15AM 38.8294 -79.8581 269° West 383 441 28,300 840 Climbing Washington Center
09:16AM 38.8242 -80.0044 267° West 396 456 29,200 660 Climbing Washington Center
09:17AM 38.8169 -80.2158 268° West 411 473 30,000 300 Climbing Indianapolis Center
09:18AM 38.8122 -80.3933 268° West 416 479 30,000  Level Indianapolis Center
09:19AM 38.8078 -80.5428 268° West 418 481 30,000  Level Indianapolis Center
09:20AM 38.8031 -80.6933 268° West 422 486 30,000  Level Indianapolis Center
09:21AM 38.7986 -80.8417 268° West 419 482 30,000  Level Indianapolis Center
09:22AM 38.7944 -80.9894 268° West 416 479 30,000  Level Indianapolis Center
09:23AM 38.7892 -81.1386 267° West 418 481 30,000  Level Indianapolis Center
09:24AM 38.7842 -81.2861 268° West 417 480 30,000  Level Indianapolis Center
09:25AM 38.7778 -81.4572 267° West 419 482 30,000  Level Indianapolis Center
09:26AM 38.7714 -81.6264 267° West 430 495 30,000  Level Indianapolis Center
09:28AM 38.7661 -81.7633 267° West 436 502 30,000  Level Indianapolis Center
09:29AM 38.7600 -81.9144 267° West 430 495 30,000  Level Indianapolis Center
09:30AM 38.7522 -82.0953 267° West 425 489 30,000  Level Indianapolis Center
09:31AM 38.7467 -82.2447 267° West 421 484 30,000  Level Indianapolis Center
09:32AM 38.7406 -82.3925 267° West 418 481 30,000  Level Indianapolis Center
09:33AM 38.7356 -82.5406 268° West 416 479 30,000  Level Indianapolis Center
09:34AM 38.7283 -82.6875 266° West 414 476 30,000  Level Indianapolis Center
09:35AM 38.7222 -82.8350 267° West 415 478 30,000  Level Indianapolis Center
09:36AM 38.7144 -83.0111 267° West 414 476 30,000  Level Indianapolis Center
09:37AM 38.7078 -83.1553 267° West 408 470 30,000  Level Indianapolis Center
09:38AM 38.7011 -83.3061 267° West 401 461 30,000  Level Indianapolis Center
09:39AM 38.6944 -83.4481 267° West 396 456 30,000  Level Indianapolis Center
09:40AM 38.6869 -83.5897 266° West 394 453 30,000  Level Indianapolis Center
09:41AM 38.6806 -83.7289 267° West 390 449 30,000  Level Indianapolis Center
09:42AM 38.6731 -83.8703 266° West 393 452 30,000  Level Indianapolis Center
09:43AM 38.6647 -84.0139 266° West 401 461 30,000  Level Indianapolis Center
09:44AM 38.6572 -84.1586 266° West 405 466 30,000  Level Indianapolis Center
09:45AM 38.6508 -84.3022 267° West 404 465 30,000  Level Indianapolis Center
09:46AM 38.6594 -84.4675 274° West 396 456 30,000  Level Indianapolis Center
09:47AM 38.6661 -84.5861 274° West 395 455 30,000  Level Indianapolis Center
09:48AM 38.6747 -84.7536 274° West 395 455 30,000  Level Indianapolis Center
09:49AM 38.6847 -84.8925 275° West 393 452 30,000  Level Indianapolis Center
09:50AM 38.6914 -85.0328 274° West 395 455 30,000  Level Indianapolis Center
09:51AM 38.6986 -85.1733 274° West 395 455 30,000  Level Indianapolis Center
09:52AM 38.7058 -85.3128 274° West 395 455 30,000  Level Indianapolis Center
09:53AM 38.7128 -85.4517 274° West 392 451 30,000  Level Indianapolis Center
09:54AM 38.7214 -85.6186 274° West 393 452 30,000  Level Indianapolis Center
09:55AM 38.7286 -85.7586 274° West 393 452 30,000  Level Indianapolis Center
09:56AM 38.7350 -85.8978 273° West 392 451 30,000  Level Indianapolis Center
09:57AM 38.7422 -86.0347 274° West 394 453 30,000  Level Indianapolis Center
09:59AM 38.7483 -86.1753 273° West 394 453 30,000  Level Indianapolis Center
10:00AM 38.7558 -86.3431 273° West 394 453 30,000  Level Indianapolis Center
10:01AM 38.7611 -86.4831 273° West 394 453 30,000  Level Indianapolis Center
10:02AM 38.7669 -86.6225 273° West 393 452 30,000  Level Indianapolis Center
10:03AM 38.7722 -86.7608 273° West 391 450 30,000  Level Indianapolis Center
10:04AM 38.7786 -86.9003 273° West 393 452 30,000  Level Indianapolis Center
10:05AM 38.7833 -87.0389 273° West 391 450 30,000  Level Indianapolis Center
10:06AM 38.7897 -87.2033 273° West 388 447 30,000  Level Indianapolis Center
10:07AM 38.7944 -87.3411 273° West 388 447 30,000  Level Indianapolis Center
10:08AM 38.7997 -87.4808 273° West 392 451 30,000  Level Indianapolis Center
10:09AM 38.8044 -87.6269 272° West 406 467 30,000  Level Indianapolis Center
10:10AM 38.8083 -87.7750 272° West 415 478 30,000  Level Indianapolis Center
10:11AM 38.8136 -87.9464 272° West 403 464 30,000  Level Indianapolis Center
10:12AM 38.8181 -88.0886 272° West 399 459 30,000  Level Indianapolis Center
10:13AM 38.8108 -88.2297 266° West 395 455 30,000  Level Kansas City Center
10:14AM 38.7769 -88.3664 252° West 400 460 30,000  Level Kansas City Center
10:15AM 38.7475 -88.5022 255° West 398 458 30,000  Level Kansas City Center
10:16AM 38.7214 -88.6350 256° West 390 449 30,000  Level Kansas City Center
10:17AM 38.7453 -88.7900 281° West 388 447 30,000  Level Kansas City Center
10:18AM 38.7711 -88.9203 284° West 383 441 30,000  Level Kansas City Center
10:19AM 38.8008 -89.0672 285° West 386 444 30,000  Level Kansas City Center
10:20AM 38.8258 -89.1983 284° West 382 440 30,000  Level Kansas City Center
10:21AM 38.8514 -89.3289 284° West 379 436 30,000  Level Kansas City Center
10:22AM 38.8789 -89.4708 284° West 382 440 30,000  Level Kansas City Center
10:23AM 38.9050 -89.6028 284° West 383 441 30,000  Level Kansas City Center
10:24AM 38.9319 -89.7464 284° West 386 444 30,000  Level Kansas City Center
10:25AM 38.9575 -89.8817 284° West 390 449 30,000  Level Kansas City Center
10:26AM 38.9814 -90.0139 283° West 403 464 30,000  Level Kansas City Center
10:27AM 39.0083 -90.1567 284° West 411 473 30,000  Level Kansas City Center
10:29AM 39.0394 -90.3269 283° West 414 476 30,000  Level Kansas City Center
10:30AM 39.0644 -90.4653 283° West 406 467 30,000  Level Kansas City Center
10:31AM 39.0911 -90.6086 284° West 412 474 30,000  Level Kansas City Center
10:32AM 39.1178 -90.7544 283° West 418 481 30,000  Level Kansas City Center
10:33AM 39.1439 -90.8989 283° West 418 481 30,000  Level Kansas City Center
10:34AM 39.1731 -91.0683 283° West 412 474 30,000  Level Kansas City Center
10:35AM 39.1972 -91.2081 283° West 406 467 30,000  Level Kansas City Center
10:36AM 39.2217 -91.3475 283° West 403 464 30,000  Level Kansas City Center
10:37AM 39.2464 -91.4911 283° West 408 470 30,000  Level Kansas City Center
10:38AM 39.2689 -91.6286 282° West 399 459 30,000  Level Kansas City Center
10:39AM 39.2933 -91.7717 282° West 382 440 30,000  Level Kansas City Center
10:40AM 39.3164 -91.9031 283° West 379 436 30,000  Level Kansas City Center
10:41AM 39.3400 -92.0406 283° West 388 447 30,000  Level Kansas City Center
10:42AM 39.3683 -92.2081 282° West 397 457 30,000  Level Kansas City Center
10:43AM 39.3903 -92.3486 281° West 399 459 30,000 -300 Level Kansas City Center
10:44AM 39.4136 -92.4881 282° West 399 459 29,400 -1,080 Descending Kansas City Center
10:45AM 39.4364 -92.6275 282° West 399 459 27,800 -1,500 Descending Kansas City Center
10:46AM 39.4578 -92.7608 282° West 389 448 26,300 -1,500 Descending Kansas City Center
10:47AM 39.4775 -92.8869 281° West 372 428 24,800 -1,620 Descending Kansas City Center
10:48AM 39.5028 -93.0358 282° West 358 412 23,000 -1,620 Descending Kansas City Center
10:49AM 39.5353 -93.1503 290° West 346 398 21,500 -1,500 Descending Kansas City Center
10:50AM 39.5592 -93.2689 285° West 348 400 20,000 -1,500 Descending Kansas City Center
10:51AM 39.5556 -93.3906 268° West 342 394 18,500 -1,440 Descending Kansas City Center
10:52AM 39.5531 -93.5142 269° West 343 395 17,100 -1,440 Descending Kansas City Center
10:53AM 39.5511 -93.6331 269° West 334 384 15,600 -1,500 Descending Kansas City Center
10:54AM 39.5483 -93.7581 268° West 319 367 14,000 -1,620 Descending Kansas City Center
10:55AM 39.5444 -93.8831 268° West 311 358 12,300 -1,020 Descending Kansas City Center
10:56AM 39.5417 -93.9875 268° West 303 349 12,000 -180 Descending Kansas City Center
10:57AM 39.5156 -94.1017 254° West 306 352 12,000  Level Kansas City Center
10:58AM 39.4714 -94.1906 237° Southwest 306 352 12,000  Level Kansas City Center
10:59AM 39.4189 -94.2950 237° Southwest 308 354 12,000  Level Kansas City Center
11:01AM 39.3733 -94.3833 236° Southwest 310 357 12,000 -120 Level Kansas City Center
11:02AM 39.3208 -94.4869 237° Southwest 308 354 11,800 -780 Descending Kansas City Center
11:03AM 39.2783 -94.5692 236° Southwest 289 333 10,400 -1,200 Descending Kansas City Center
11:04AM 39.2111 -94.6056 203° Southwest 258 297 9,400 -1,260 Descending Kansas City Center
11:05AM 39.1425 -94.6158 187° South 258 297 7,900 -1,500 Descending Kansas City Center
11:06AM 39.0925 -94.6578 213° Southwest 250 288 6,400 -1,500 Descending Kansas City Center
11:07AM 39.1039 -94.7408 280° West 222 255 4,800 -1,500 Descending Kansas City Center
11:08AM 39.1522 -94.7664 338° Northwest 194 223 3,300 -1,020 Descending Kansas City Center
11:09AM 39.2078 -94.7547 North 180 207 2,700 -660 Descending Kansas City Center
11:10AM 39.2478 -94.7433 12° North 154 177 2,000 -780 Descending Kansas City Center
11:11AM 39.2856 -94.7306 15° North 129 148 1,200 -780 Descending Kansas City Center